Time;durP1;ratioP1;P1;durP2;ratioP2;P2;SDS_P1;SDS_P2;PMS_P1;PMS_P2;Temp;Humidity;BMP_temperature;BMP_pressure;BME280_temperature;BME280_humidity;BME280_pressure;Samples;Min_cycle;Max_cycle;Signal;HPM_P1;HPM_P2
2021/12/31 00:02:19;;;;;;;0.90;0.77;;;19.10;72.90;;;;;;5121474;28;20165;-42
2021/12/31 00:04:45;;;;;;;0.70;0.70;;;19.10;72.80;;;;;;5121575;28;20027;-43
2021/12/31 00:07:11;;;;;;;1.17;0.80;;;19.10;72.80;;;;;;5120240;28;20036;-42
2021/12/31 00:09:38;;;;;;;0.88;0.80;;;19.10;72.80;;;;;;5118662;28;20032;-43
2021/12/31 00:12:05;;;;;;;1.10;0.85;;;19.10;72.80;;;;;;5117223;28;20504;-42
2021/12/31 00:14:31;;;;;;;0.98;0.88;;;19.10;72.70;;;;;;5117160;28;20036;-43
2021/12/31 00:16:57;;;;;;;1.00;0.70;;;19.10;72.80;;;;;;5117592;28;20031;-42
2021/12/31 00:19:25;;;;;;;1.05;0.70;;;19.10;72.80;;;;;;5117355;28;20028;-42
2021/12/31 00:21:52;;;;;;;1.05;0.82;;;19.10;72.70;;;;;;5117270;28;20032;-44
2021/12/31 00:24:18;;;;;;;1.08;0.88;;;19.10;72.80;;;;;;5117247;28;20045;-43
2021/12/31 00:26:44;;;;;;;0.88;0.88;;;19.10;72.80;;;;;;5116527;28;20034;-42
2021/12/31 00:29:10;;;;;;;0.73;0.70;;;19.10;72.80;;;;;;5117660;28;20065;-42
2021/12/31 00:31:36;;;;;;;0.88;0.82;;;19.10;72.80;;;;;;5116412;28;20038;-43
2021/12/31 00:34:02;;;;;;;1.00;0.70;;;19.10;72.80;;;;;;5119593;28;20038;-43
2021/12/31 00:36:41;;;;;;;0.73;0.70;;;19.10;72.80;;;;;;5123142;28;20069;-43
2021/12/31 00:39:07;;;;;;;0.82;0.80;;;19.10;72.80;;;;;;5120454;28;20098;-43
2021/12/31 00:41:34;;;;;;;1.50;0.80;;;19.10;72.80;;;;;;5102426;28;20036;-42
2021/12/31 00:44:00;;;;;;;1.38;0.90;;;19.10;72.80;;;;;;5102763;28;20050;-43
2021/12/31 00:46:26;;;;;;;1.08;0.70;;;19.00;72.80;;;;;;5102628;28;20035;-45
2021/12/31 00:48:52;;;;;;;0.95;0.93;;;19.00;72.80;;;;;;5109691;28;20084;-43
2021/12/31 00:51:18;;;;;;;0.70;0.70;;;19.00;72.80;;;;;;5122915;28;20038;-45
2021/12/31 00:53:44;;;;;;;0.95;0.85;;;19.00;72.80;;;;;;5122596;28;20411;-43
2021/12/31 00:56:10;;;;;;;0.90;0.80;;;19.00;72.70;;;;;;5122981;28;20135;-42
2021/12/31 00:58:36;;;;;;;0.88;0.82;;;19.10;72.80;;;;;;5122864;28;20028;-43
2021/12/31 01:01:02;;;;;;;0.90;0.80;;;19.00;72.80;;;;;;5122960;28;20053;-42
2021/12/31 01:03:29;;;;;;;1.10;0.80;;;19.00;72.70;;;;;;5122868;28;20031;-42
2021/12/31 01:05:55;;;;;;;0.73;0.70;;;19.00;72.60;;;;;;5122902;28;20031;-42
2021/12/31 01:08:21;;;;;;;0.85;0.68;;;19.00;72.70;;;;;;5122399;28;20106;-44
2021/12/31 01:10:47;;;;;;;0.63;0.63;;;19.10;72.70;;;;;;5121480;28;20043;-42
2021/12/31 01:13:29;;;;;;;1.70;0.90;;;19.10;72.70;;;;;;5123445;28;20020;-42
2021/12/31 01:15:59;;;;;;;0.68;0.68;;;19.00;72.60;;;;;;5126242;28;20026;-42
2021/12/31 01:19:44;;;;;;;0.90;0.73;;;19.00;72.60;;;;;;5126329;28;20059;-42
2021/12/31 01:21:11;;;;;;;0.70;0.65;;;19.00;72.70;;;;;;5126424;28;20057;-43
2021/12/31 01:23:37;;;;;;;0.82;0.82;;;19.00;72.70;;;;;;5126347;28;20032;-42
2021/12/31 01:26:03;;;;;;;0.80;0.80;;;19.00;72.70;;;;;;5126577;28;20082;-42
2021/12/31 01:28:29;;;;;;;1.00;0.82;;;19.00;72.60;;;;;;5125730;27;20081;-42
2021/12/31 01:30:56;;;;;;;0.70;0.70;;;19.00;72.70;;;;;;5126231;28;20036;-43
2021/12/31 01:33:22;;;;;;;1.50;0.70;;;19.00;72.70;;;;;;5126214;28;20020;-44
2021/12/31 01:35:48;;;;;;;1.30;0.73;;;19.00;72.70;;;;;;5126083;28;20032;-42
2021/12/31 01:38:16;;;;;;;1.15;0.70;;;19.00;72.70;;;;;;5125869;28;20028;-42
2021/12/31 01:40:42;;;;;;;0.80;0.60;;;19.00;72.70;;;;;;5124605;28;20031;-43
2021/12/31 01:43:10;;;;;;;1.38;0.90;;;19.00;72.70;;;;;;5126249;28;20083;-42
2021/12/31 01:45:43;;;;;;;0.90;0.80;;;19.00;72.80;;;;;;5125858;28;20031;-43
2021/12/31 01:48:21;;;;;;;1.33;0.85;;;19.00;72.60;;;;;;5125236;28;20038;-42
2021/12/31 01:50:47;;;;;;;0.70;0.70;;;19.00;72.70;;;;;;5125872;28;20043;-42
2021/12/31 01:53:14;;;;;;;0.90;0.80;;;19.00;72.70;;;;;;5125594;28;20051;-42
2021/12/31 01:55:40;;;;;;;2.13;0.80;;;19.00;72.70;;;;;;5125300;28;20067;-43
2021/12/31 01:58:07;;;;;;;1.00;0.90;;;19.00;72.60;;;;;;5124303;28;20035;-43
2021/12/31 02:00:34;;;;;;;0.70;0.70;;;19.00;72.80;;;;;;5125525;28;20035;-43
2021/12/31 02:03:01;;;;;;;1.50;0.90;;;19.00;72.70;;;;;;5124201;28;20019;-43
2021/12/31 02:05:28;;;;;;;1.15;0.82;;;19.00;72.70;;;;;;5125665;28;20023;-42
2021/12/31 02:07:54;;;;;;;0.80;0.80;;;19.00;72.60;;;;;;5125649;28;20078;-42
2021/12/31 02:10:20;;;;;;;1.30;0.90;;;19.00;72.70;;;;;;5123766;28;20050;-43
2021/12/31 02:12:46;;;;;;;1.05;0.95;;;19.00;72.70;;;;;;5125446;28;20036;-43
2021/12/31 02:15:16;;;;;;;1.08;0.90;;;19.00;72.80;;;;;;5125265;28;20028;-42
2021/12/31 02:17:44;;;;;;;0.80;0.80;;;19.00;72.80;;;;;;5124965;28;20035;-43
2021/12/31 02:20:11;;;;;;;0.98;0.80;;;19.00;72.70;;;;;;5124921;28;20024;-43
2021/12/31 02:22:44;;;;;;;1.17;0.80;;;19.00;72.70;;;;;;5105014;28;20028;-43
2021/12/31 02:25:10;;;;;;;1.10;0.80;;;19.00;72.70;;;;;;5103890;28;20028;-43
2021/12/31 02:27:39;;;;;;;1.23;0.90;;;19.00;72.70;;;;;;5104736;28;20056;-44
2021/12/31 02:30:08;;;;;;;0.80;0.80;;;19.00;72.80;;;;;;5104463;28;20036;-42
2021/12/31 02:32:34;;;;;;;0.98;0.82;;;19.00;72.80;;;;;;5104953;28;20032;-42
2021/12/31 02:35:00;;;;;;;1.20;1.05;;;19.00;72.90;;;;;;5104484;28;20055;-42
2021/12/31 02:37:26;;;;;;;0.85;0.85;;;19.00;72.70;;;;;;5114608;28;20054;-42
2021/12/31 02:39:52;;;;;;;0.82;0.82;;;19.00;72.80;;;;;;5115979;28;20028;-42
2021/12/31 02:42:18;;;;;;;0.88;0.80;;;19.00;72.80;;;;;;5124753;28;20032;-43
2021/12/31 02:44:45;;;;;;;1.08;0.80;;;19.00;72.80;;;;;;5124881;28;20102;-42
2021/12/31 02:47:11;;;;;;;1.42;0.90;;;19.00;72.70;;;;;;5124702;28;20064;-43
2021/12/31 02:49:39;;;;;;;1.00;0.90;;;19.00;72.80;;;;;;5124453;28;20044;-42
2021/12/31 02:52:08;;;;;;;1.30;0.70;;;18.90;72.60;;;;;;5124638;28;20047;-42
2021/12/31 02:54:36;;;;;;;1.10;0.88;;;18.90;72.70;;;;;;5124234;28;20039;-43
2021/12/31 02:57:03;;;;;;;1.23;1.00;;;19.00;72.70;;;;;;5123557;28;20028;-42
2021/12/31 02:59:30;;;;;;;0.90;0.77;;;19.00;72.70;;;;;;5123008;28;20045;-42
2021/12/31 03:01:56;;;;;;;0.95;0.70;;;18.90;72.60;;;;;;5124453;28;20087;-42
2021/12/31 03:04:24;;;;;;;0.88;0.80;;;18.90;72.70;;;;;;5124431;28;20103;-42
2021/12/31 03:06:50;;;;;;;1.13;0.90;;;19.00;72.80;;;;;;5123146;28;20035;-43
2021/12/31 03:09:19;;;;;;;1.00;0.90;;;18.90;72.60;;;;;;5122516;28;20043;-42
2021/12/31 03:11:46;;;;;;;1.80;0.88;;;18.90;72.70;;;;;;5124168;28;20036;-43
2021/12/31 03:14:12;;;;;;;1.25;0.93;;;18.90;72.70;;;;;;5122770;28;20820;-42
2021/12/31 03:16:38;;;;;;;1.27;1.00;;;18.90;72.70;;;;;;5122431;28;20073;-42
2021/12/31 03:19:04;;;;;;;1.65;1.08;;;18.90;72.70;;;;;;5122346;28;20020;-42
2021/12/31 03:21:30;;;;;;;2.15;1.05;;;18.90;72.70;;;;;;5124065;28;20024;-42
2021/12/31 03:23:58;;;;;;;1.07;0.90;;;18.90;72.80;;;;;;5123524;28;20027;-43
2021/12/31 03:26:24;;;;;;;;;;;18.90;72.70;;;;;;5124452;28;20114;-42
2021/12/31 03:28:50;;;;;;;1.55;1.05;;;18.90;72.70;;;;;;5124060;28;19923;-42
2021/12/31 03:31:16;;;;;;;0.95;0.93;;;18.90;72.80;;;;;;5123435;28;20038;-44
2021/12/31 03:33:42;;;;;;;3.20;1.02;;;18.90;72.70;;;;;;5124033;28;20054;-42
2021/12/31 03:36:08;;;;;;;1.10;0.95;;;18.90;72.70;;;;;;5123290;28;20028;-42
2021/12/31 03:38:34;;;;;;;1.33;0.90;;;18.90;72.60;;;;;;5123177;28;20081;-42
2021/12/31 03:41:00;;;;;;;1.00;0.90;;;18.90;72.70;;;;;;5105036;28;20034;-42
2021/12/31 03:43:27;;;;;;;1.23;1.10;;;18.90;72.70;;;;;;5103497;28;20032;-42
2021/12/31 03:45:53;;;;;;;1.83;1.10;;;18.90;72.70;;;;;;5108746;28;20083;-42
2021/12/31 03:48:20;;;;;;;1.23;1.13;;;18.90;72.80;;;;;;5123727;28;20028;-42
2021/12/31 03:50:46;;;;;;;1.67;0.87;;;18.90;72.70;;;;;;5123245;28;20078;-43
2021/12/31 03:53:14;;;;;;;1.10;1.00;;;18.90;72.70;;;;;;5123453;28;20036;-44
2021/12/31 03:55:41;;;;;;;1.40;1.08;;;18.90;72.70;;;;;;5123261;28;20023;-42
2021/12/31 03:58:07;;;;;;;1.80;1.20;;;18.90;72.80;;;;;;5123646;27;20079;-42
2021/12/31 04:00:33;;;;;;;1.30;1.20;;;18.90;72.80;;;;;;5123330;28;20512;-42
2021/12/31 04:03:09;;;;;;;1.20;1.10;;;18.90;72.60;;;;;;5123523;28;20110;-43
2021/12/31 04:05:36;;;;;;;2.05;1.20;;;18.90;72.70;;;;;;5123405;28;20111;-42
2021/12/31 04:08:02;;;;;;;1.33;1.23;;;18.90;72.70;;;;;;5123455;28;20053;-43
2021/12/31 04:10:28;;;;;;;1.00;0.90;;;18.80;72.60;;;;;;5109340;28;20043;-43
2021/12/31 04:12:55;;;;;;;1.55;1.23;;;18.80;72.70;;;;;;5103132;28;20043;-42
2021/12/31 04:15:22;;;;;;;1.30;1.20;;;18.90;72.70;;;;;;5102990;28;20036;-42
2021/12/31 04:17:48;;;;;;;1.25;1.15;;;18.80;72.60;;;;;;5107566;28;20031;-42
2021/12/31 04:20:20;;;;;;;1.23;1.13;;;18.90;72.70;;;;;;5122849;28;20095;-43
2021/12/31 04:22:53;;;;;;;1.30;1.20;;;18.80;72.60;;;;;;5123095;28;20069;-42
2021/12/31 04:25:20;;;;;;;2.28;1.02;;;18.90;72.60;;;;;;5123039;28;20035;-42
2021/12/31 04:27:46;;;;;;;1.20;1.10;;;18.90;72.70;;;;;;5123344;28;20028;-43
2021/12/31 04:30:12;;;;;;;1.40;1.10;;;18.80;72.70;;;;;;5123097;28;20039;-42
2021/12/31 04:32:42;;;;;;;1.63;1.20;;;18.80;72.60;;;;;;5123086;28;20034;-43
2021/12/31 04:35:10;;;;;;;1.25;1.15;;;18.90;72.60;;;;;;5123321;28;20035;-42
2021/12/31 04:37:36;;;;;;;1.48;1.15;;;18.90;72.60;;;;;;5123170;28;20030;-43
2021/12/31 04:40:02;;;;;;;1.40;1.15;;;18.80;72.60;;;;;;5113308;28;20723;-42
2021/12/31 04:42:28;;;;;;;1.23;1.13;;;18.80;72.60;;;;;;5102561;28;20095;-43
2021/12/31 04:44:54;;;;;;;1.88;1.25;;;18.80;73.40;;;;;;5102805;28;20028;-42
2021/12/31 04:47:20;;;;;;;1.30;1.20;;;18.80;72.60;;;;;;5102734;28;20031;-42
2021/12/31 04:49:46;;;;;;;1.05;0.93;;;18.80;72.60;;;;;;5121496;28;20043;-42
2021/12/31 04:52:12;;;;;;;1.15;1.05;;;18.80;72.70;;;;;;5126755;28;20074;-42
2021/12/31 04:54:39;;;;;;;1.30;1.20;;;18.80;72.60;;;;;;5126813;28;20031;-42
2021/12/31 04:57:05;;;;;;;1.38;1.25;;;18.80;72.60;;;;;;5126939;28;20055;-42
2021/12/31 04:59:31;;;;;;;1.77;1.30;;;18.80;72.60;;;;;;5127009;28;20598;-42
2021/12/31 05:01:57;;;;;;;1.52;0.90;;;18.80;72.60;;;;;;5126579;28;20038;-43
2021/12/31 05:04:23;;;;;;;1.23;1.13;;;18.80;72.60;;;;;;5127051;28;20085;-42
2021/12/31 05:06:50;;;;;;;2.03;1.25;;;18.80;72.60;;;;;;5126767;28;20624;-44
2021/12/31 05:09:16;;;;;;;1.30;1.20;;;18.80;72.60;;;;;;5122988;28;20119;-42
2021/12/31 05:11:43;;;;;;;0.82;0.82;;;18.80;72.50;;;;;;5106375;28;20024;-42
2021/12/31 05:14:09;;;;;;;1.30;1.20;;;18.80;72.60;;;;;;5106521;28;20020;-43
2021/12/31 05:16:35;;;;;;;1.60;1.10;;;18.70;72.60;;;;;;5106449;28;20036;-42
2021/12/31 05:19:03;;;;;;;1.00;0.90;;;18.70;72.60;;;;;;5114883;28;20031;-42
2021/12/31 05:21:30;;;;;;;1.23;1.13;;;18.70;72.50;;;;;;5125757;28;20031;-42
2021/12/31 05:23:56;;;;;;;1.60;1.00;;;18.80;72.50;;;;;;5126377;28;20038;-42
2021/12/31 05:26:22;;;;;;;1.48;1.38;;;18.70;72.60;;;;;;5125958;28;20027;-43
2021/12/31 05:28:48;;;;;;;1.50;1.08;;;18.70;72.50;;;;;;5126304;28;20031;-42
2021/12/31 05:31:15;;;;;;;1.17;1.08;;;18.70;72.50;;;;;;5126088;28;20032;-42
2021/12/31 05:33:41;;;;;;;1.27;1.17;;;18.70;72.60;;;;;;5125170;28;20083;-42
2021/12/31 05:36:07;;;;;;;1.42;1.30;;;18.70;72.60;;;;;;5125472;28;20126;-43
2021/12/31 05:38:33;;;;;;;1.20;1.10;;;18.70;72.50;;;;;;5126276;28;20027;-43
2021/12/31 05:41:00;;;;;;;1.48;1.10;;;18.70;72.60;;;;;;5124833;28;20035;-42
2021/12/31 05:43:26;;;;;;;1.80;1.15;;;18.70;72.50;;;;;;5107563;28;20034;-43
2021/12/31 05:45:52;;;;;;;1.73;1.20;;;18.70;72.50;;;;;;5126136;28;20496;-42
2021/12/31 05:48:18;;;;;;;2.20;1.13;;;18.60;72.50;;;;;;5125994;27;20039;-42
2021/12/31 05:50:44;;;;;;;2.88;1.20;;;18.70;72.60;;;;;;5125561;28;20043;-42
2021/12/31 05:53:10;;;;;;;1.10;1.00;;;18.60;72.60;;;;;;5125709;28;20512;-42
2021/12/31 05:55:36;;;;;;;1.40;1.20;;;18.70;72.50;;;;;;5125689;28;20129;-42
2021/12/31 05:58:02;;;;;;;1.20;1.10;;;18.60;72.40;;;;;;5125751;28;20030;-43
2021/12/31 06:00:29;;;;;;;1.20;1.10;;;18.60;72.50;;;;;;5124707;28;20038;-41
2021/12/31 06:02:58;;;;;;;1.60;1.10;;;18.60;72.50;;;;;;5125711;28;20020;-41
2021/12/31 06:05:25;;;;;;;1.25;1.15;;;18.60;72.40;;;;;;5125702;28;20091;-42
2021/12/31 06:07:55;;;;;;;1.42;1.10;;;18.60;72.40;;;;;;5125563;28;20020;-43
2021/12/31 06:10:22;;;;;;;1.40;1.30;;;18.60;72.50;;;;;;5124092;28;20684;-44
2021/12/31 06:12:50;;;;;;;1.20;1.10;;;18.60;72.40;;;;;;5125122;28;20035;-42
2021/12/31 06:15:18;;;;;;;1.23;1.00;;;18.60;72.50;;;;;;5107332;28;20042;-42
2021/12/31 06:17:44;;;;;;;1.13;1.00;;;18.60;72.50;;;;;;5124283;28;20036;-42
2021/12/31 06:20:11;;;;;;;1.20;1.10;;;18.60;72.50;;;;;;5125315;28;20024;-42
2021/12/31 06:22:37;;;;;;;1.70;1.27;;;18.60;72.50;;;;;;5125309;28;20043;-42
2021/12/31 06:25:04;;;;;;;1.75;1.30;;;18.60;72.50;;;;;;5125096;28;20032;-42
2021/12/31 06:27:30;;;;;;;1.27;1.17;;;18.60;72.50;;;;;;5124778;27;20020;-44
2021/12/31 06:29:56;;;;;;;1.27;1.17;;;18.60;72.40;;;;;;5125322;28;20039;-41
2021/12/31 06:32:22;;;;;;;0.82;0.82;;;18.50;72.40;;;;;;5125071;28;20047;-42
2021/12/31 06:34:48;;;;;;;1.52;1.20;;;18.50;72.40;;;;;;5125147;28;20034;-42
2021/12/31 06:37:14;;;;;;;1.58;1.10;;;18.50;72.50;;;;;;5124915;28;20027;-42
2021/12/31 06:39:42;;;;;;;1.15;1.05;;;18.50;72.40;;;;;;5117627;28;20036;-42
2021/12/31 06:42:09;;;;;;;1.25;1.15;;;18.50;72.40;;;;;;5104812;28;20024;-43
2021/12/31 06:44:38;;;;;;;1.43;1.33;;;18.50;72.40;;;;;;5104652;28;20080;-42
2021/12/31 06:47:05;;;;;;;1.10;1.00;;;18.50;72.40;;;;;;5104403;28;20031;-42
2021/12/31 06:49:31;;;;;;;0.85;0.85;;;18.50;72.40;;;;;;5117396;28;20027;-42
2021/12/31 06:51:58;;;;;;;0.90;0.90;;;18.50;72.30;;;;;;5124654;28;20066;-42
2021/12/31 06:54:24;;;;;;;1.00;1.00;;;18.50;72.40;;;;;;5124736;28;20027;-43
2021/12/31 06:56:50;;;;;;;1.15;1.05;;;18.50;72.40;;;;;;5124498;28;20027;-42
2021/12/31 06:59:16;;;;;;;1.10;1.00;;;18.50;72.40;;;;;;5124659;28;20019;-43
2021/12/31 07:01:42;;;;;;;1.08;1.00;;;18.40;72.30;;;;;;5124230;28;20036;-42
2021/12/31 07:04:08;;;;;;;1.13;1.02;;;18.40;72.40;;;;;;5124319;28;20103;-42
2021/12/31 07:06:34;;;;;;;0.90;0.90;;;18.40;72.30;;;;;;5122954;28;20453;-42
2021/12/31 07:09:00;;;;;;;0.95;0.95;;;18.40;72.40;;;;;;5123441;28;20025;-42
2021/12/31 07:11:26;;;;;;;1.50;1.10;;;18.40;72.40;;;;;;5124056;28;20032;-43
2021/12/31 07:13:53;;;;;;;1.20;1.10;;;18.40;72.40;;;;;;5124544;28;20110;-42
2021/12/31 07:16:19;;;;;;;1.10;1.00;;;18.40;72.40;;;;;;5124248;28;20154;-43
2021/12/31 07:18:45;;;;;;;1.13;0.90;;;18.40;72.40;;;;;;5124242;28;20031;-44
2021/12/31 07:21:11;;;;;;;1.17;1.07;;;18.40;72.30;;;;;;5124145;28;20034;-42
2021/12/31 07:23:37;;;;;;;1.00;0.90;;;18.40;72.40;;;;;;5124318;28;20027;-42
2021/12/31 07:26:03;;;;;;;1.33;1.08;;;18.40;72.50;;;;;;5123515;28;20019;-42
2021/12/31 07:28:30;;;;;;;1.58;0.85;;;18.40;72.50;;;;;;5123681;28;20668;-42
2021/12/31 07:30:56;;;;;;;1.35;1.10;;;18.30;72.40;;;;;;5124180;28;20035;-42
2021/12/31 07:33:23;;;;;;;0.90;0.90;;;18.30;72.50;;;;;;5124165;28;20029;-42
2021/12/31 07:35:49;;;;;;;;;;;18.30;72.50;;;;;;5123032;28;20032;-43
2021/12/31 07:38:24;;;;;;;1.38;0.90;;;18.30;72.40;;;;;;5123484;28;19914;-44
2021/12/31 07:40:51;;;;;;;0.80;0.80;;;18.30;72.50;;;;;;5103693;28;20028;-42
2021/12/31 07:43:18;;;;;;;0.98;0.95;;;18.30;72.40;;;;;;5103549;28;20036;-43
2021/12/31 07:45:44;;;;;;;0.93;0.93;;;18.30;72.40;;;;;;5103779;28;20028;-41
2021/12/31 07:48:10;;;;;;;1.20;1.10;;;18.30;72.30;;;;;;5104663;28;20020;-42
2021/12/31 07:50:36;;;;;;;1.00;0.98;;;18.30;72.40;;;;;;5123748;28;20043;-43
2021/12/31 07:53:04;;;;;;;1.20;1.10;;;18.30;72.40;;;;;;5123671;28;20048;-42
2021/12/31 07:55:30;;;;;;;;;;;18.30;72.40;;;;;;5123677;28;20035;-42
2021/12/31 07:57:56;;;;;;;1.20;1.10;;;18.30;72.40;;;;;;5123727;28;19907;-42
2021/12/31 08:00:22;;;;;;;1.10;1.00;;;18.20;72.40;;;;;;5123788;28;20016;-43
2021/12/31 08:02:49;;;;;;;0.95;0.85;;;18.30;72.40;;;;;;5123513;28;20035;-43
2021/12/31 08:05:15;;;;;;;0.77;0.77;;;18.20;72.30;;;;;;5123571;28;20028;-42
2021/12/31 08:07:41;;;;;;;0.70;0.70;;;18.20;72.40;;;;;;5123438;28;20104;-42
2021/12/31 08:10:08;;;;;;;1.25;1.15;;;18.20;72.30;;;;;;5112688;28;20107;-42
2021/12/31 08:12:35;;;;;;;1.73;1.17;;;18.20;72.40;;;;;;5103289;28;20201;-42
2021/12/31 08:15:02;;;;;;;0.80;0.77;;;18.20;72.30;;;;;;5103165;28;20113;-45
2021/12/31 08:17:29;;;;;;;1.05;0.93;;;18.20;72.30;;;;;;5103082;28;20086;-42
2021/12/31 08:19:55;;;;;;;1.70;1.20;;;18.20;72.30;;;;;;5119258;28;20096;-43
2021/12/31 08:22:24;;;;;;;1.02;0.90;;;18.20;72.40;;;;;;5119894;28;20556;-43
2021/12/31 08:24:50;;;;;;;1.10;1.00;;;18.20;72.40;;;;;;5127359;28;20023;-42
2021/12/31 08:27:17;;;;;;;1.35;0.90;;;18.20;72.40;;;;;;5127635;28;20024;-42
2021/12/31 08:29:43;;;;;;;2.45;1.02;;;18.10;72.30;;;;;;5127577;28;20063;-42
2021/12/31 08:32:09;;;;;;;1.25;1.08;;;18.20;72.40;;;;;;5127720;28;20023;-42
2021/12/31 08:34:35;;;;;;;2.38;1.10;;;18.10;72.20;;;;;;5127670;28;20145;-42
2021/12/31 08:37:01;;;;;;;1.02;0.90;;;18.10;72.20;;;;;;5127607;28;20118;-42
2021/12/31 08:39:27;;;;;;;1.30;1.20;;;18.10;72.30;;;;;;5122708;28;20503;-41
2021/12/31 08:41:53;;;;;;;1.20;1.10;;;18.10;72.30;;;;;;5106857;28;20036;-42
2021/12/31 08:44:19;;;;;;;1.63;1.20;;;18.10;72.30;;;;;;5106918;28;20831;-42
2021/12/31 08:46:46;;;;;;;1.30;1.20;;;18.10;72.40;;;;;;5107012;28;20024;-43
2021/12/31 08:49:12;;;;;;;1.77;1.30;;;18.10;72.30;;;;;;5116945;28;20112;-42
2021/12/31 08:51:38;;;;;;;1.58;1.27;;;18.10;72.40;;;;;;5127245;28;20031;-42
2021/12/31 08:54:06;;;;;;;1.67;1.20;;;18.10;72.40;;;;;;5127200;28;20506;-43
2021/12/31 08:56:32;;;;;;;1.40;1.23;;;18.10;72.40;;;;;;5126915;28;20035;-42
2021/12/31 08:58:58;;;;;;;1.50;1.40;;;18.10;72.40;;;;;;5126855;28;20040;-41
2021/12/31 09:01:24;;;;;;;2.00;1.42;;;18.10;72.40;;;;;;5127308;28;20403;-42
2021/12/31 09:03:50;;;;;;;2.35;1.90;;;18.00;72.30;;;;;;5127106;28;20055;-43
2021/12/31 09:06:19;;;;;;;2.10;1.70;;;18.10;72.50;;;;;;5127066;28;20031;-42
2021/12/31 09:08:46;;;;;;;2.38;1.90;;;18.10;72.40;;;;;;5126760;27;20025;-42
2021/12/31 09:11:12;;;;;;;2.80;1.65;;;18.00;72.40;;;;;;5106379;27;20043;-41
2021/12/31 09:13:38;;;;;;;2.88;1.90;;;18.00;72.40;;;;;;5105157;28;20039;-42
2021/12/31 09:16:05;;;;;;;2.60;1.83;;;18.10;72.30;;;;;;5106480;28;20032;-41
2021/12/31 09:18:31;;;;;;;3.85;2.38;;;18.10;72.30;;;;;;5110649;28;20099;-42
2021/12/31 09:20:57;;;;;;;2.60;1.65;;;18.00;72.40;;;;;;5126685;28;20044;-42
2021/12/31 09:23:23;;;;;;;2.90;1.80;;;18.00;72.40;;;;;;5126276;28;20035;-42
2021/12/31 09:25:49;;;;;;;3.03;2.30;;;18.00;72.40;;;;;;5126472;28;20027;-41
2021/12/31 09:28:18;;;;;;;2.87;1.90;;;18.00;72.40;;;;;;5125083;28;20031;-43
2021/12/31 09:30:44;;;;;;;2.33;1.83;;;18.00;72.30;;;;;;5126224;28;20112;-42
2021/12/31 09:33:11;;;;;;;2.95;2.00;;;18.00;72.30;;;;;;5126587;28;20093;-43
2021/12/31 09:35:39;;;;;;;2.97;2.00;;;18.00;72.30;;;;;;5126626;28;20389;-42
2021/12/31 09:38:09;;;;;;;3.38;2.08;;;18.00;72.40;;;;;;5126683;28;20027;-42
2021/12/31 09:40:38;;;;;;;3.42;2.05;;;18.00;72.40;;;;;;5124419;28;20024;-42
2021/12/31 09:43:09;;;;;;;3.95;2.33;;;18.00;72.40;;;;;;5126209;28;20031;-42
2021/12/31 09:45:36;;;;;;;2.10;1.77;;;18.00;72.40;;;;;;5126321;28;20047;-42
2021/12/31 09:48:09;;;;;;;3.20;2.30;;;18.00;72.50;;;;;;5159642;27;20449;-42
2021/12/31 09:50:36;;;;;;;2.15;1.83;;;18.00;72.50;;;;;;5125594;28;20071;-42
2021/12/31 09:53:02;;;;;;;3.60;2.55;;;18.00;72.50;;;;;;5124712;28;20044;-42
2021/12/31 09:55:39;;;;;;;2.60;2.03;;;18.00;72.40;;;;;;5124005;28;20032;-42
2021/12/31 09:58:09;;;;;;;3.05;2.47;;;18.00;72.60;;;;;;5126137;28;20048;-42
2021/12/31 10:00:36;;;;;;;3.10;2.47;;;17.90;72.40;;;;;;5125944;28;20055;-42
2021/12/31 10:03:10;;;;;;;2.50;2.10;;;17.90;72.40;;;;;;5125991;28;20036;-41
2021/12/31 10:05:41;;;;;;;2.72;2.00;;;18.00;72.50;;;;;;5125998;28;20471;-42
2021/12/31 10:08:18;;;;;;;2.97;2.42;;;17.90;72.40;;;;;;5105470;28;20079;-42
2021/12/31 10:11:03;;;;;;;3.33;2.33;;;17.90;72.40;;;;;;5109937;28;20054;-43
2021/12/31 10:13:29;;;;;;;3.05;2.25;;;17.90;72.50;;;;;;5110669;28;20051;-42
2021/12/31 10:15:56;;;;;;;3.70;2.65;;;17.90;72.50;;;;;;5125955;28;20031;-43
2021/12/31 10:18:36;;;;;;;3.13;2.40;;;17.90;72.50;;;;;;5125751;28;20020;-42
2021/12/31 10:21:03;;;;;;;3.70;2.60;;;17.90;72.40;;;;;;5125462;28;20027;-42
2021/12/31 10:23:29;;;;;;;3.17;2.33;;;17.90;72.50;;;;;;5125614;28;20034;-43
2021/12/31 10:26:13;;;;;;;3.95;2.28;;;17.90;72.40;;;;;;5125406;28;20115;-42
2021/12/31 10:28:56;;;;;;;4.35;2.58;;;17.90;72.40;;;;;;5125395;27;20027;-41
2021/12/31 10:31:22;;;;;;;3.22;2.30;;;17.90;72.50;;;;;;5125419;28;20092;-42
2021/12/31 10:33:49;;;;;;;3.03;2.30;;;17.90;72.50;;;;;;5125362;28;20042;-42
2021/12/31 10:36:35;;;;;;;3.85;2.30;;;17.90;72.50;;;;;;5125419;28;20114;-42
2021/12/31 10:39:14;;;;;;;4.70;2.40;;;17.90;72.50;;;;;;5123595;28;20090;-42
2021/12/31 10:41:40;;;;;;;5.28;2.10;;;17.90;72.40;;;;;;5104423;28;20028;-42
2021/12/31 10:44:06;;;;;;;3.22;2.33;;;17.90;72.50;;;;;;5104902;28;20833;-46
2021/12/31 10:46:32;;;;;;;2.50;1.85;;;17.90;72.60;;;;;;5104176;28;20024;-42
2021/12/31 10:49:06;;;;;;;3.17;2.78;;;17.90;72.60;;;;;;5112916;28;20027;-42
2021/12/31 10:51:44;;;;;;;5.53;2.22;;;17.90;72.60;;;;;;5124785;28;20102;-42
2021/12/31 10:54:33;;;;;;;3.47;2.85;;;17.90;72.60;;;;;;5125053;28;20036;-41
2021/12/31 10:57:00;;;;;;;4.32;2.90;;;17.90;72.50;;;;;;5124853;28;20031;-42
2021/12/31 10:59:33;;;;;;;2.85;2.30;;;17.90;72.50;;;;;;5124994;27;20485;-42
2021/12/31 11:01:59;;;;;;;3.10;2.50;;;17.90;72.70;;;;;;5123590;28;20023;-42
2021/12/31 11:04:28;;;;;;;2.10;1.85;;;17.90;72.70;;;;;;5125051;28;20822;-42
2021/12/31 11:06:55;;;;;;;3.58;2.60;;;17.90;72.70;;;;;;5123492;28;20023;-42
2021/12/31 11:09:21;;;;;;;3.45;2.80;;;17.80;72.60;;;;;;5123739;28;20043;-42
2021/12/31 11:11:49;;;;;;;4.63;2.63;;;17.90;72.70;;;;;;5124140;28;20036;-42
2021/12/31 11:14:15;;;;;;;;;;;17.80;72.60;;;;;;5125438;28;20256;-41
2021/12/31 11:16:41;;;;;;;3.90;2.72;;;17.80;72.60;;;;;;5124501;28;19904;-42
2021/12/31 11:19:09;;;;;;;3.70;2.42;;;17.80;72.60;;;;;;5124369;28;20377;-42
2021/12/31 11:21:35;;;;;;;3.58;2.42;;;17.80;72.60;;;;;;5124182;28;20031;-42
2021/12/31 11:24:28;;;;;;;2.90;2.58;;;17.80;72.60;;;;;;5123344;28;20034;-43
2021/12/31 11:26:54;;;;;;;3.50;2.28;;;17.80;72.60;;;;;;5124399;28;20081;-42
2021/12/31 11:29:20;;;;;;;3.53;2.95;;;17.80;72.70;;;;;;5124431;28;20028;-42
2021/12/31 11:31:47;;;;;;;2.80;2.33;;;17.80;72.60;;;;;;5123916;28;20027;-42
2021/12/31 11:34:13;;;;;;;3.45;2.63;;;17.80;72.70;;;;;;5124435;28;20020;-43
2021/12/31 11:36:41;;;;;;;3.50;2.58;;;17.80;72.60;;;;;;5124457;28;20032;-42
2021/12/31 11:39:23;;;;;;;3.33;2.78;;;17.80;72.70;;;;;;5122681;28;20050;-42
2021/12/31 11:41:49;;;;;;;3.72;2.67;;;17.80;72.70;;;;;;5123821;28;20030;-41
2021/12/31 11:44:17;;;;;;;3.53;2.95;;;17.80;72.80;;;;;;5122966;28;20543;-41
2021/12/31 11:46:44;;;;;;;;;;;17.80;72.70;;;;;;5124870;28;20074;-42
2021/12/31 11:49:21;;;;;;;3.95;2.70;;;17.80;72.70;;;;;;5123654;28;19963;-42
2021/12/31 11:52:02;;;;;;;2.67;2.45;;;17.80;72.90;;;;;;5123817;28;20035;-42
2021/12/31 11:54:28;;;;;;;3.13;2.80;;;17.80;72.90;;;;;;5124159;28;20012;-43
2021/12/31 11:56:56;;;;;;;3.88;2.80;;;17.80;72.90;;;;;;5123432;28;20039;-42
2021/12/31 11:59:24;;;;;;;;;;;17.80;72.80;;;;;;5124246;28;20035;-42
2021/12/31 12:01:55;;;;;;;3.08;2.55;;;17.80;72.90;;;;;;5123762;28;19951;-42
2021/12/31 12:04:32;;;;;;;2.97;2.67;;;17.80;72.90;;;;;;5124022;28;20742;-42
2021/12/31 12:07:01;;;;;;;3.85;2.78;;;17.80;72.80;;;;;;5123982;28;20054;-42
2021/12/31 12:09:36;;;;;;;3.17;2.75;;;17.80;72.90;;;;;;5118079;28;20040;-42
2021/12/31 12:12:07;;;;;;;3.20;2.90;;;17.80;72.90;;;;;;5103130;28;20031;-42
2021/12/31 12:14:41;;;;;;;3.03;2.70;;;17.80;72.80;;;;;;5103790;28;20036;-42
2021/12/31 12:17:15;;;;;;;3.22;2.72;;;17.80;72.80;;;;;;5123300;28;20079;-42
2021/12/31 12:19:47;;;;;;;3.38;2.70;;;17.80;72.80;;;;;;5123467;28;20464;-42
2021/12/31 12:22:39;;;;;;;3.67;2.70;;;17.80;72.90;;;;;;5123792;28;20032;-42
2021/12/31 12:25:21;;;;;;;3.97;3.10;;;17.80;73.00;;;;;;5123644;28;20028;-42
2021/12/31 12:27:56;;;;;;;2.80;2.50;;;17.80;73.00;;;;;;5122374;28;20043;-41
2021/12/31 12:30:22;;;;;;;3.72;3.10;;;17.80;72.90;;;;;;5123850;28;20397;-42
2021/12/31 12:35:16;;;;;;;3.22;2.70;;;17.80;73.00;;;;;;5124036;28;20492;-42
2021/12/31 12:37:42;;;;;;;2.88;2.33;;;17.80;73.00;;;;;;5123750;28;20023;-42
2021/12/31 12:40:09;;;;;;;3.92;2.83;;;17.80;73.00;;;;;;5113319;28;20404;-42
2021/12/31 12:42:35;;;;;;;3.30;3.00;;;17.80;73.10;;;;;;5103067;28;20053;-42
2021/12/31 12:45:09;;;;;;;3.17;2.88;;;17.80;73.00;;;;;;5103230;28;20036;-45
2021/12/31 12:47:38;;;;;;;3.60;2.85;;;17.80;73.10;;;;;;5103475;28;20040;-42
2021/12/31 12:50:08;;;;;;;4.05;2.85;;;17.80;73.10;;;;;;5120371;28;20035;-42
2021/12/31 12:52:34;;;;;;;3.28;2.67;;;17.80;73.10;;;;;;5123337;28;20126;-42
2021/12/31 12:55:14;;;;;;;2.90;2.60;;;17.80;73.20;;;;;;5123458;28;20027;-41